Time;durP1;ratioP1;P1;durP2;ratioP2;P2;SDS_P1;SDS_P2;PMS_P1;PMS_P2;Temp;Humidity;BMP_temperature;BMP_pressure;BME280_temperature;BME280_humidity;BME280_pressure;Samples;Min_cycle;Max_cycle;Signal;HPM_P1;HPM_P2
2023/07/20 00:01:55;;;;;;;4.20;2.70;;;;;;;18.67;60.53;99149.44;105301;1255;71158;-72
2023/07/20 00:04:22;;;;;;;4.20;2.60;;;;;;;18.66;60.46;99150.76;105581;1258;60407;-74
2023/07/20 00:06:50;;;;;;;5.20;2.40;;;;;;;18.64;60.75;99145.52;105372;1258;60405;-74
2023/07/20 00:09:17;;;;;;;7.90;2.50;;;;;;;18.63;60.74;99140.90;105693;1259;71614;-73
2023/07/20 00:11:50;;;;;;;5.30;2.30;;;;;;;18.62;60.56;99142.16;105270;1259;69940;-72
2023/07/20 00:14:18;;;;;;;4.40;2.40;;;;;;;18.61;60.87;99144.30;105435;1260;71396;-74
2023/07/20 00:16:55;;;;;;;4.30;2.20;;;;;;;18.58;60.92;99145.96;106625;1258;60538;-73
2023/07/20 00:19:27;;;;;;;4.00;2.50;;;;;;;18.58;60.80;99145.02;106560;1256;61957;-74
2023/07/20 00:21:54;;;;;;;4.30;2.70;;;;;;;18.58;60.75;99145.52;106038;1259;72884;-72
2023/07/20 00:24:22;;;;;;;6.50;2.60;;;;;;;18.57;60.96;99145.07;105883;1257;68337;-73
2023/07/20 00:26:50;;;;;;;4.70;2.30;;;;;;;18.56;61.02;99144.52;105526;1258;71555;-72
2023/07/20 00:29:17;;;;;;;4.40;2.40;;;;;;;18.55;61.02;99144.20;105308;1260;60615;-74
2023/07/20 00:31:46;;;;;;;6.10;2.50;;;;;;;18.54;61.12;99144.19;105610;1257;60397;-76
2023/07/20 00:34:15;;;;;;;4.10;2.50;;;;;;;18.53;60.95;99144.86;105736;1255;72764;-76
2023/07/20 00:36:43;;;;;;;5.30;2.50;;;;;;;18.52;61.17;99142.10;105783;1258;68918;-77
2023/07/20 00:39:10;;;;;;;7.70;2.50;;;;;;;18.51;61.24;99139.30;105645;1260;72723;-76
2023/07/20 00:41:37;;;;;;;6.10;2.60;;;;;;;18.51;61.14;99140.05;105740;1254;60491;-75
2023/07/20 00:44:05;;;;;;;3.20;2.30;;;;;;;18.51;61.21;99144.52;105792;1260;60634;-73
2023/07/20 00:46:32;;;;;;;4.00;2.60;;;;;;;18.52;61.49;99145.01;107618;1253;72524;-77
2023/07/20 00:49:00;;;;;;;3.70;2.40;;;;;;;18.52;61.41;99141.77;108556;1258;69010;-75
2023/07/20 00:51:28;;;;;;;6.20;2.30;;;;;;;18.53;61.40;99146.23;106900;1259;72680;-74
2023/07/20 00:53:56;;;;;;;6.30;2.80;;;;;;;18.53;61.73;99143.48;106909;1254;60446;-74
2023/07/20 00:56:23;;;;;;;4.10;2.60;;;;;;;18.54;61.74;99143.59;107026;1259;60474;-73
2023/07/20 00:58:52;;;;;;;3.40;2.30;;;;;;;18.54;61.95;99138.70;105314;1255;72035;-75
2023/07/20 01:01:22;;;;;;;9.20;3.20;;;;;;;18.53;61.82;99140.69;105654;1262;68493;-74
2023/07/20 01:03:49;;;;;;;4.10;2.50;;;;;;;18.53;61.92;99140.02;105855;1259;72677;-74
2023/07/20 01:06:39;;;;;;;4.20;2.60;;;;;;;18.52;62.20;99140.10;105934;1258;60566;-75
2023/07/20 01:09:35;;;;;;;5.00;2.50;;;;;;;18.51;62.69;99137.83;105861;1254;60480;-75
2023/07/20 01:12:12;;;;;;;3.80;2.70;;;;;;;18.49;63.27;99139.35;105746;1260;73897;-76
2023/07/20 01:14:40;;;;;;;2.60;2.30;;;;;;;18.47;63.69;99138.46;106352;1259;67882;-73
2023/07/20 01:17:07;;;;;;;3.20;2.60;;;;;;;18.46;64.06;99141.16;106734;1260;71561;-75
2023/07/20 01:19:35;;;;;;;3.20;2.40;;;;;;;18.44;64.15;99140.79;107395;1254;59580;-71
2023/07/20 01:22:42;;;;;;;3.80;2.50;;;;;;;18.42;63.97;99136.94;107020;1255;60511;-70
2023/07/20 01:25:23;;;;;;;5.10;2.90;;;;;;;18.42;64.13;99132.14;106381;1260;72396;-72
2023/07/20 01:27:59;;;;;;;7.40;2.80;;;;;;;18.41;64.05;99128.73;105727;1259;69322;-72
2023/07/20 01:30:51;;;;;;;4.90;3.00;;;;;;;18.40;63.93;99132.10;106833;1253;71382;-72
2023/07/20 01:33:19;;;;;;;4.90;3.00;;;;;;;18.40;64.02;99131.08;107222;1255;60443;-73
2023/07/20 01:35:55;;;;;;;5.40;3.40;;;;;;;18.39;64.18;99133.73;107526;1253;60333;-72
2023/07/20 01:38:22;;;;;;;4.00;2.80;;;;;;;18.38;64.29;99134.65;107771;1258;72579;-72
2023/07/20 01:40:50;;;;;;;4.40;2.70;;;;;;;18.39;64.38;99138.20;107323;1261;69287;-73
2023/07/20 01:43:17;;;;;;;6.00;2.90;;;;;;;18.39;64.21;99135.52;107123;1260;72451;-75
2023/07/20 01:45:45;;;;;;;4.00;2.60;;;;;;;18.37;64.34;99131.56;106342;1259;60366;-76
2023/07/20 01:48:13;;;;;;;6.10;2.80;;;;;;;18.38;64.46;99134.36;107204;1259;60412;-76
2023/07/20 01:50:42;;;;;;;3.70;2.50;;;;;;;18.37;64.50;99137.30;107784;1258;72559;-74
2023/07/20 01:53:10;;;;;;;4.90;2.80;;;;;;;18.37;64.35;99136.86;106864;1260;69240;-75
2023/07/20 01:55:37;;;;;;;2.90;2.40;;;;;;;18.37;64.35;99134.01;105433;1254;70269;-73
2023/07/20 01:58:06;;;;;;;4.70;2.40;;;;;;;18.36;64.13;99135.77;105447;1261;60528;-75
2023/07/20 02:00:33;;;;;;;3.30;2.40;;;;;;;18.35;63.98;99133.93;105770;1254;60578;-75
2023/07/20 02:03:00;;;;;;;5.40;3.20;;;;;;;18.33;63.91;99133.63;105578;1260;73860;-72
2023/07/20 02:05:28;;;;;;;3.80;3.00;;;;;;;18.33;63.93;99135.86;105531;1259;69148;-72
2023/07/20 02:07:56;;;;;;;3.70;2.70;;;;;;;18.31;63.89;99135.56;105764;1260;71890;-73
2023/07/20 02:10:24;;;;;;;4.50;2.70;;;;;;;18.32;63.72;99142.67;106186;1254;60421;-73
2023/07/20 02:12:51;;;;;;;5.00;3.50;;;;;;;18.31;63.63;99138.30;106537;1253;60492;-73
2023/07/20 02:15:19;;;;;;;9.50;3.40;;;;;;;18.31;63.55;99140.40;105826;1263;73816;-74
2023/07/20 02:17:47;;;;;;;6.50;3.00;;;;;;;18.31;63.42;99141.80;105923;1259;69987;-71
2023/07/20 02:20:14;;;;;;;5.70;2.90;;;;;;;18.32;63.35;99141.98;106367;1256;70204;-71
2023/07/20 02:22:42;;;;;;;3.10;2.60;;;;;;;18.32;63.41;99143.11;106210;1258;60577;-71
2023/07/20 02:25:10;;;;;;;6.40;2.80;;;;;;;18.33;63.30;99141.27;105766;1254;60516;-72
2023/07/20 02:27:37;;;;;;;3.70;2.50;;;;;;;18.32;63.41;99139.02;105523;1260;73800;-72
2023/07/20 02:30:06;;;;;;;5.30;2.50;;;;;;;18.32;63.34;99142.03;105520;1259;68961;-73
2023/07/20 02:32:34;;;;;;;3.40;2.70;;;;;;;18.32;63.34;99137.94;105531;1259;71542;-76
2023/07/20 02:37:46;;;;;;;4.70;2.70;;;;;;;18.35;63.25;99136.81;102376;1292;601208;-76
2023/07/20 02:40:14;;;;;;;5.00;3.20;;;;;;;18.34;63.31;99139.53;104514;1269;60565;-76
2023/07/20 02:42:42;;;;;;;4.90;2.90;;;;;;;18.34;63.31;99139.82;105124;1265;59328;-74
2023/07/20 02:45:10;;;;;;;2.90;2.50;;;;;;;18.34;63.27;99140.09;105005;1261;72250;-75
2023/07/20 02:47:37;;;;;;;5.60;3.20;;;;;;;18.35;63.00;99139.13;105473;1263;69254;-74
2023/07/20 02:50:07;;;;;;;5.80;3.00;;;;;;;18.36;63.09;99139.21;105661;1266;72665;-74
2023/07/20 02:52:35;;;;;;;4.80;2.40;;;;;;;18.36;63.20;99139.81;106417;1254;195533;-72
2023/07/20 02:55:03;;;;;;;5.90;2.70;;;;;;;18.37;62.93;99137.85;105833;1259;59328;-72
2023/07/20 02:57:30;;;;;;;5.20;3.00;;;;;;;18.39;62.99;99137.45;105365;1254;72309;-74
2023/07/20 02:59:58;;;;;;;5.80;3.10;;;;;;;18.40;63.06;99141.58;105301;1259;69202;-76
2023/07/20 03:02:25;;;;;;;4.40;2.50;;;;;;;18.41;62.89;99137.89;105238;1262;71406;-74
2023/07/20 03:04:54;;;;;;;3.70;2.70;;;;;;;18.42;62.96;99137.09;105382;1259;59706;-76
2023/07/20 03:07:21;;;;;;;4.10;2.80;;;;;;;18.43;63.02;99134.44;105829;1259;60012;-75
2023/07/20 03:09:49;;;;;;;4.80;2.70;;;;;;;18.45;63.05;99141.48;105946;1259;73117;-75
2023/07/20 03:12:16;;;;;;;4.90;2.90;;;;;;;18.47;62.87;99137.05;106875;1253;68713;-77
2023/07/20 03:14:44;;;;;;;4.30;2.80;;;;;;;18.49;62.47;99138.18;105460;1256;71651;-76
2023/07/20 03:17:12;;;;;;;5.60;3.20;;;;;;;18.52;62.44;99134.79;105453;1253;59733;-75
2023/07/20 03:19:40;;;;;;;4.00;3.10;;;;;;;18.54;62.39;99130.15;105853;1256;60035;-71
2023/07/20 03:22:08;;;;;;;4.80;2.80;;;;;;;18.56;62.48;99131.44;108262;1254;72633;-69
2023/07/20 03:24:35;;;;;;;8.00;3.60;;;;;;;18.59;62.30;99130.30;105753;1253;70177;-71
2023/07/20 03:27:03;;;;;;;5.10;3.10;;;;;;;18.61;62.12;99132.20;105484;1257;72773;-72
2023/07/20 03:29:32;;;;;;;4.20;2.80;;;;;;;18.63;62.10;99131.71;105405;1259;59621;-73
2023/07/20 03:32:00;;;;;;;6.40;3.30;;;;;;;18.66;62.21;99129.34;105567;1258;61255;-73
2023/07/20 03:34:28;;;;;;;10.10;3.40;;;;;;;18.69;62.13;99128.98;105508;1255;73087;-72
2023/07/20 03:36:56;;;;;;;6.80;3.20;;;;;;;18.71;62.24;99130.37;105518;1262;69423;-74
2023/07/20 03:39:23;;;;;;;5.20;2.70;;;;;;;18.74;62.23;99130.48;105332;1257;75250;-73
2023/07/20 03:41:51;;;;;;;5.80;3.00;;;;;;;18.77;62.01;99130.34;105383;1257;59554;-76
2023/07/20 03:44:18;;;;;;;5.50;2.60;;;;;;;18.80;61.88;99129.98;105460;1257;59946;-75
2023/07/20 03:46:46;;;;;;;7.00;3.00;;;;;;;18.84;61.93;99130.57;105488;1257;72200;-74
2023/07/20 03:49:14;;;;;;;5.40;2.90;;;;;;;18.88;61.85;99131.57;108005;1255;68890;-74
2023/07/20 03:51:41;;;;;;;7.20;3.20;;;;;;;18.93;61.66;99134.37;107707;1256;71418;-73
2023/07/20 03:54:09;;;;;;;6.00;2.80;;;;;;;18.99;61.65;99130.44;107027;1257;60206;-74
2023/07/20 03:56:36;;;;;;;3.70;3.00;;;;;;;19.05;61.54;99134.77;106233;1254;59523;-76
2023/07/20 03:59:04;;;;;;;3.90;2.80;;;;;;;19.11;61.50;99133.16;105380;1257;73232;-74
2023/07/20 04:01:36;;;;;;;9.90;3.20;;;;;;;19.17;61.41;99134.84;106924;1256;69079;-75
2023/07/20 04:04:06;;;;;;;6.70;2.80;;;;;;;19.23;61.43;99131.36;106644;1256;72756;-73
2023/07/20 04:06:36;;;;;;;5.60;2.70;;;;;;;19.30;61.41;99129.16;106412;1260;60457;-71
2023/07/20 04:09:04;;;;;;;3.60;2.70;;;;;;;19.37;61.11;99129.73;105237;1261;60022;-73
2023/07/20 04:11:32;;;;;;;5.60;3.10;;;;;;;19.45;61.00;99128.31;105496;1256;71825;-71
2023/07/20 04:14:00;;;;;;;7.90;2.90;;;;;;;19.52;61.06;99130.98;105303;1256;70369;-73
2023/07/20 04:16:27;;;;;;;5.80;2.70;;;;;;;19.58;60.63;99128.98;105341;1256;71235;-76
2023/07/20 04:18:56;;;;;;;9.90;3.30;;;;;;;19.65;60.55;99125.02;105344;1261;60109;-74
2023/07/20 04:21:27;;;;;;;3.70;2.80;;;;;;;19.71;60.38;99128.74;106039;1257;59781;-73
2023/07/20 04:23:55;;;;;;;5.00;3.00;;;;;;;19.77;59.86;99125.58;107264;1256;72035;-75
2023/07/20 04:26:24;;;;;;;9.00;3.00;;;;;;;19.84;59.59;99127.10;106636;1262;69236;-75
2023/07/20 04:28:52;;;;;;;9.50;3.90;;;;;;;19.93;59.19;99126.00;105542;1256;72679;-74
2023/07/20 04:31:33;;;;;;;7.70;3.60;;;;;;;20.07;59.17;99121.97;105715;1257;60255;-75
2023/07/20 04:34:01;;;;;;;6.40;3.90;;;;;;;20.24;58.59;99121.16;105902;1258;60012;-76
2023/07/20 04:36:28;;;;;;;6.10;3.50;;;;;;;20.41;58.48;99117.95;105280;1256;73284;-74
2023/07/20 04:38:56;;;;;;;5.30;2.90;;;;;;;20.55;57.93;99117.25;105408;1256;70508;-74
2023/07/20 04:41:25;;;;;;;5.70;3.50;;;;;;;20.66;57.22;99114.44;105618;1259;72418;-73
2023/07/20 04:43:55;;;;;;;9.80;3.70;;;;;;;20.76;56.75;99116.89;105201;1256;60153;-72
2023/07/20 04:46:26;;;;;;;5.80;3.20;;;;;;;20.88;56.55;99118.19;105254;1262;59545;-74
2023/07/20 04:48:55;;;;;;;7.30;3.00;;;;;;;20.99;56.31;99117.52;105322;1256;72207;-71
2023/07/20 04:51:23;;;;;;;6.30;3.40;;;;;;;21.11;55.82;99123.74;106018;1260;68228;-75
2023/07/20 04:53:54;;;;;;;3.60;3.20;;;;;;;21.18;55.72;99128.92;106869;1256;71105;-75
2023/07/20 04:56:23;;;;;;;4.40;3.00;;;;;;;21.27;55.48;99129.93;107980;1254;59628;-75
2023/07/20 04:58:52;;;;;;;7.00;3.10;;;;;;;21.34;55.09;99126.17;106230;1260;59621;-75
2023/07/20 05:01:20;;;;;;;7.00;3.00;;;;;;;21.45;54.46;99120.58;105319;1257;71772;-75
2023/07/20 05:03:48;;;;;;;8.50;4.00;;;;;;;21.56;54.27;99123.45;105708;1257;70105;-74
2023/07/20 05:06:15;;;;;;;8.70;3.70;;;;;;;21.64;54.18;99125.64;105705;1257;72895;-78
2023/07/20 05:08:42;;;;;;;5.50;2.60;;;;;;;21.69;53.98;99121.48;105848;1262;60097;-77
2023/07/20 05:11:11;;;;;;;7.80;3.10;;;;;;;21.78;53.58;99122.48;105797;1260;59645;-77
2023/07/20 05:13:40;;;;;;;8.90;3.00;;;;;;;21.91;53.48;99121.23;105712;1256;73403;-79
2023/07/20 05:16:08;;;;;;;5.80;2.90;;;;;;;22.08;53.03;99121.48;105837;1259;67718;-74
2023/07/20 05:18:35;;;;;;;5.30;2.80;;;;;;;22.20;52.65;99117.71;105668;1260;72165;-74
2023/07/20 05:21:03;;;;;;;4.50;2.90;;;;;;;22.27;52.05;99116.55;105721;1260;59881;-76
2023/07/20 05:23:31;;;;;;;9.00;3.60;;;;;;;22.36;52.00;99114.45;106384;1256;62119;-74
2023/07/20 05:25:58;;;;;;;6.80;2.80;;;;;;;22.44;51.70;99110.17;107894;1255;71777;-75
2023/07/20 05:28:26;;;;;;;3.10;2.70;;;;;;;22.51;51.77;99109.89;107690;1256;68861;-73
2023/07/20 05:30:54;;;;;;;7.40;3.10;;;;;;;22.59;51.23;99107.98;105412;1257;72768;-73
2023/07/20 05:33:22;;;;;;;6.70;3.00;;;;;;;22.62;50.86;99105.14;105510;1257;59771;-73
2023/07/20 05:35:50;;;;;;;6.20;2.90;;;;;;;22.63;50.81;99101.23;105228;1256;61049;-75
2023/07/20 05:38:17;;;;;;;4.00;3.00;;;;;;;22.66;51.24;99097.20;105851;1257;71824;-73
2023/07/20 05:40:45;;;;;;;5.60;3.00;;;;;;;22.70;51.27;99097.05;106079;1260;69954;-72
2023/07/20 05:43:12;;;;;;;6.00;3.00;;;;;;;22.73;51.46;99098.30;105693;1257;70667;-75
2023/07/20 05:45:44;;;;;;;6.10;2.60;;;;;;;22.77;51.16;99097.67;105524;1260;59656;-77
2023/07/20 05:48:12;;;;;;;5.30;2.80;;;;;;;22.84;50.76;99096.56;105763;1259;59849;-75
2023/07/20 05:50:43;;;;;;;3.70;2.30;;;;;;;22.90;50.34;99089.94;105405;1259;73017;-80
2023/07/20 05:53:11;;;;;;;5.30;2.20;;;;;;;22.95;49.57;99088.22;105908;1257;69043;-76
2023/07/20 05:55:39;;;;;;;4.90;2.30;;;;;;;22.99;49.21;99088.13;107501;1255;71361;-77
2023/07/20 05:58:07;;;;;;;7.00;2.70;;;;;;;23.05;48.68;99086.55;108758;1255;58786;-78
2023/07/20 06:00:34;;;;;;;4.80;2.60;;;;;;;23.09;48.54;99093.61;106132;1259;59553;-76
2023/07/20 06:03:03;;;;;;;5.10;2.80;;;;;;;23.16;48.12;99089.23;105552;1261;73082;-76
2023/07/20 06:05:30;;;;;;;5.30;2.50;;;;;;;23.20;47.94;99088.16;105548;1259;70130;-76
2023/07/20 06:08:00;;;;;;;3.80;2.50;;;;;;;23.24;47.69;99100.97;106454;1257;71257;-77
2023/07/20 06:10:28;;;;;;;4.30;3.10;;;;;;;23.26;47.65;99103.02;107406;1260;59732;-75
2023/07/20 06:12:56;;;;;;;2.90;2.60;;;;;;;23.29;47.52;99104.45;107467;1255;59497;-75
2023/07/20 06:15:30;;;;;;;3.50;2.60;;;;;;;23.32;47.08;99106.08;107533;1257;71772;-78
2023/07/20 06:17:58;;;;;;;4.70;2.40;;;;;;;23.35;46.66;99104.89;107819;1253;70234;-78
2023/07/20 06:20:26;;;;;;;3.20;2.60;;;;;;;23.38;46.40;99101.97;106823;1260;71069;-76
2023/07/20 06:22:54;;;;;;;5.40;2.20;;;;;;;23.45;46.08;99102.20;106040;1259;60129;-79
2023/07/20 06:25:21;;;;;;;3.60;2.50;;;;;;;23.51;45.69;99098.58;107731;1256;59253;-76
2023/07/20 06:27:51;;;;;;;4.30;2.50;;;;;;;23.56;45.46;99089.42;107955;1256;71932;-76
2023/07/20 06:30:19;;;;;;;4.60;2.60;;;;;;;23.62;45.43;99088.23;107933;1260;68686;-78
2023/07/20 06:32:47;;;;;;;9.20;2.60;;;;;;;23.66;45.36;99085.52;107262;1256;72562;-76
2023/07/20 06:35:15;;;;;;;11.60;2.30;;;;;;;23.70;45.43;99083.84;107977;1256;59598;-78
2023/07/20 06:37:42;;;;;;;3.90;2.30;;;;;;;23.78;45.41;99083.86;107473;1255;59619;-76
2023/07/20 06:40:11;;;;;;;9.70;3.00;;;;;;;23.85;45.46;99087.52;107857;1256;70864;-78
2023/07/20 06:42:41;;;;;;;4.40;3.00;;;;;;;23.93;45.35;99087.83;107839;1256;69114;-77
2023/07/20 06:45:12;;;;;;;3.60;2.40;;;;;;;23.99;45.08;99088.98;107569;1257;71571;-76
2023/07/20 06:47:40;;;;;;;8.10;2.70;;;;;;;24.05;44.47;99085.92;106168;1262;60585;-78
2023/07/20 06:50:09;;;;;;;9.40;3.60;;;;;;;24.08;44.38;99084.73;105512;1260;60457;-77
2023/07/20 06:52:36;;;;;;;11.30;3.50;;;;;;;24.11;44.69;99090.53;105496;1255;73935;-80
2023/07/20 06:55:04;;;;;;;8.90;3.40;;;;;;;24.16;44.74;99090.75;106163;1259;68799;-76
2023/07/20 06:57:32;;;;;;;9.70;3.90;;;;;;;24.20;44.82;99089.55;108345;1256;71289;-77
2023/07/20 07:00:04;;;;;;;8.60;3.40;;;;;;;24.24;44.55;99091.17;108143;1255;60137;-78
2023/07/20 07:02:32;;;;;;;6.90;3.30;;;;;;;24.28;44.75;99089.11;105593;1258;60856;-78
2023/07/20 07:05:00;;;;;;;7.40;3.60;;;;;;;24.31;44.96;99087.95;105641;1257;72569;-80
2023/07/20 07:07:45;;;;;;;7.70;2.90;;;;;;;24.36;45.17;99091.75;105445;1262;70093;-77
2023/07/20 07:10:12;;;;;;;6.00;2.90;;;;;;;24.40;45.33;99091.80;105387;1260;73229;-81
2023/07/20 07:12:40;;;;;;;9.80;3.20;;;;;;;24.43;45.30;99090.92;105500;1260;60441;-78
2023/07/20 07:15:10;;;;;;;6.60;2.90;;;;;;;24.46;45.02;99093.94;105496;1260;60509;-77
2023/07/20 07:17:38;;;;;;;7.90;2.70;;;;;;;24.50;44.76;99096.44;105607;1257;72634;-79
2023/07/20 07:20:07;;;;;;;7.40;2.80;;;;;;;24.52;44.84;99094.98;105363;1260;72390;-75
2023/07/20 07:22:37;;;;;;;6.20;2.50;;;;;;;24.54;44.77;99097.87;105732;1259;72412;-77
2023/07/20 07:25:07;;;;;;;4.20;3.10;;;;;;;24.57;44.63;99099.55;105575;1260;60556;-74
2023/07/20 07:27:35;;;;;;;8.40;2.80;;;;;;;24.57;44.53;99098.52;106641;1256;60539;-77
2023/07/20 07:30:03;;;;;;;6.10;3.10;;;;;;;24.55;44.73;99103.73;107756;1256;74100;-77
2023/07/20 07:32:31;;;;;;;5.50;2.90;;;;;;;24.58;44.57;99104.09;105830;1256;68413;-77
2023/07/20 07:35:00;;;;;;;3.60;2.50;;;;;;;24.61;44.76;99101.06;105532;1259;71641;-76
2023/07/20 07:37:28;;;;;;;4.90;2.80;;;;;;;24.64;44.68;99101.05;105399;1257;60623;-76
2023/07/20 07:40:03;;;;;;;4.20;2.30;;;;;;;24.66;44.77;99096.64;105416;1260;60470;-76
2023/07/20 07:42:31;;;;;;;6.20;2.30;;;;;;;24.71;44.89;99095.53;105449;1259;72379;-76
2023/07/20 07:44:58;;;;;;;5.50;2.80;;;;;;;24.78;45.13;99096.42;105517;1260;71050;-76
2023/07/20 07:47:26;;;;;;;4.30;2.60;;;;;;;24.86;45.12;99092.81;105559;1260;72433;-78
2023/07/20 07:49:53;;;;;;;5.70;2.50;;;;;;;24.94;44.83;99082.52;106488;1256;60456;-77
2023/07/20 07:52:21;;;;;;;6.00;2.70;;;;;;;25.00;44.68;99080.09;106996;1260;61021;-77
2023/07/20 07:54:49;;;;;;;2.50;2.30;;;;;;;25.07;44.55;99077.88;106619;1259;73853;-78
2023/07/20 07:57:16;;;;;;;4.10;2.70;;;;;;;25.11;43.96;99074.81;107373;1256;68936;-75
2023/07/20 07:59:44;;;;;;;4.60;2.40;;;;;;;25.11;43.74;99071.73;108488;1256;71218;-79
2023/07/20 08:02:14;;;;;;;6.80;2.90;;;;;;;25.14;43.71;99076.33;107647;1259;60483;-79
2023/07/20 08:04:41;;;;;;;4.90;2.60;;;;;;;25.17;43.60;99071.04;105643;1260;60364;-78
2023/07/20 08:07:10;;;;;;;3.40;2.30;;;;;;;25.20;43.86;99072.70;105692;1260;72686;-78
2023/07/20 08:09:38;;;;;;;5.90;2.70;;;;;;;25.26;43.96;99071.71;105450;1260;70293;-79
2023/07/20 08:12:06;;;;;;;9.80;3.00;;;;;;;25.34;44.11;99072.10;105329;1260;72784;-77
2023/07/20 08:14:33;;;;;;;4.80;2.60;;;;;;;25.40;44.14;99076.85;105666;1259;60425;-77
2023/07/20 08:17:01;;;;;;;6.80;2.80;;;;;;;25.45;44.30;99078.77;105524;1260;60935;-79
2023/07/20 08:19:29;;;;;;;5.70;2.70;;;;;;;25.53;44.46;99082.95;105586;1260;72552;-76
2023/07/20 08:21:56;;;;;;;4.00;2.60;;;;;;;25.59;44.75;99079.15;106031;1268;69841;-75
2023/07/20 08:24:24;;;;;;;5.20;2.70;;;;;;;25.67;45.01;99078.61;105826;1257;71207;-78
2023/07/20 08:26:51;;;;;;;6.50;2.80;;;;;;;25.79;45.10;99079.92;106332;1259;60468;-76
2023/07/20 08:29:19;;;;;;;5.10;2.60;;;;;;;25.92;44.93;99077.49;107526;1254;61178;-78
2023/07/20 08:31:46;;;;;;;4.60;2.60;;;;;;;26.04;44.64;99071.96;107717;1260;72841;-75
2023/07/20 08:34:14;;;;;;;4.80;2.90;;;;;;;26.20;44.50;99071.65;106913;1260;68755;-79
2023/07/20 08:36:58;;;;;;;10.10;6.10;;;;;;;26.39;43.99;99061.77;105330;1263;72679;-76
2023/07/20 08:39:25;;;;;;;5.80;2.70;;;;;;;26.56;43.86;99060.64;105401;1260;60342;-76
2023/07/20 08:41:53;;;;;;;4.10;2.70;;;;;;;26.75;43.35;99056.07;105185;1263;60341;-76
2023/07/20 08:44:20;;;;;;;5.80;3.40;;;;;;;26.93;43.09;99059.98;105057;1261;73833;-81
2023/07/20 08:46:48;;;;;;;3.60;2.70;;;;;;;27.03;42.86;99057.67;105837;1258;69521;-81
2023/07/20 08:49:17;;;;;;;4.80;2.40;;;;;;;27.11;42.90;99053.15;105746;1260;70507;-76
2023/07/20 08:51:45;;;;;;;4.90;2.30;;;;;;;27.18;42.83;99052.39;105297;1257;60385;-78
2023/07/20 08:54:13;;;;;;;3.80;2.70;;;;;;;27.33;42.36;99057.95;105671;1257;60370;-76
2023/07/20 08:56:40;;;;;;;3.90;2.70;;;;;;;27.43;41.34;99045.28;106082;1254;72593;-76
2023/07/20 08:59:08;;;;;;;5.80;2.60;;;;;;;27.51;41.40;99061.09;108444;1259;69110;-77
2023/07/20 09:01:36;;;;;;;4.10;2.50;;;;;;;27.59;40.57;99047.16;106499;1259;72691;-77
2023/07/20 09:04:03;;;;;;;4.30;2.70;;;;;;;27.59;40.67;99042.91;105837;1260;60522;-77
2023/07/20 09:06:31;;;;;;;4.10;2.70;;;;;;;27.56;41.19;99033.41;105287;1260;60432;-77
2023/07/20 09:08:58;;;;;;;8.00;2.90;;;;;;;27.56;41.02;99034.83;105426;1257;74242;-75
2023/07/20 09:11:26;;;;;;;4.50;2.70;;;;;;;27.64;40.97;99040.80;105556;1258;71078;-77
2023/07/20 09:14:06;;;;;;;7.30;3.10;;;;;;;27.71;40.99;99034.47;105971;1261;73319;-77
2023/07/20 09:16:48;;;;;;;4.90;2.70;;;;;;;27.72;41.02;99034.13;106383;1260;60498;-76
2023/07/20 09:19:16;;;;;;;4.50;3.30;;;;;;;27.69;41.23;99034.79;106036;1260;60335;-75
2023/07/20 09:21:52;;;;;;;9.10;2.90;;;;;;;27.72;40.52;99042.52;105523;1260;72748;-77
2023/07/20 09:24:20;;;;;;;2.60;2.40;;;;;;;27.80;40.07;99030.67;105755;1260;70131;-75
2023/07/20 09:26:48;;;;;;;3.80;2.60;;;;;;;27.93;40.01;99033.79;105584;1261;71703;-75
2023/07/20 09:29:19;;;;;;;4.70;2.60;;;;;;;28.16;39.94;99033.54;107085;1257;60499;-75
2023/07/20 09:32:03;;;;;;;3.90;2.80;;;;;;;28.53;39.85;99036.99;107462;1260;60485;-76
2023/07/20 09:34:31;;;;;;;4.30;3.20;;;;;;;28.93;39.23;99030.27;106341;1260;74669;-74
2023/07/20 09:37:03;;;;;;;3.40;2.70;;;;;;;29.21;38.38;99029.54;105355;1260;69502;-74
2023/07/20 09:39:32;;;;;;;3.30;2.30;;;;;;;29.38;37.38;99031.21;105497;1260;71310;-75
2023/07/20 09:42:01;;;;;;;3.90;3.20;;;;;;;29.32;37.71;99028.58;105572;1258;61069;-73
2023/07/20 09:44:32;;;;;;;4.20;2.80;;;;;;;29.20;37.95;99024.10;106999;1257;60942;-74
2023/07/20 09:47:03;;;;;;;3.60;2.80;;;;;;;29.16;37.88;99030.86;106628;1258;72532;-74
2023/07/20 09:49:32;;;;;;;3.50;2.90;;;;;;;29.05;37.93;99024.20;106756;1257;68800;-75
2023/07/20 09:52:04;;;;;;;5.30;3.30;;;;;;;28.81;38.38;99026.70;106565;1257;73193;-74
2023/07/20 09:54:32;;;;;;;3.60;2.40;;;;;;;28.66;38.93;99023.46;106692;1254;60487;-74
2023/07/20 09:57:00;;;;;;;3.20;2.50;;;;;;;28.75;39.18;99020.44;106701;1260;60409;-74
2023/07/20 09:59:28;;;;;;;4.30;2.80;;;;;;;28.95;39.14;99011.56;107747;1256;76180;-73
2023/07/20 10:01:59;;;;;;;3.10;2.70;;;;;;;29.14;39.36;99007.70;107881;1256;69382;-74
2023/07/20 10:04:27;;;;;;;3.80;3.30;;;;;;;29.33;38.77;99008.60;107427;1258;72811;-74
2023/07/20 10:06:55;;;;;;;4.00;2.60;;;;;;;29.51;38.39;99006.61;107045;1257;60510;-77
2023/07/20 10:09:25;;;;;;;3.80;3.00;;;;;;;29.63;37.88;99006.48;106323;1263;60399;-74
2023/07/20 10:11:55;;;;;;;5.80;2.90;;;;;;;29.85;38.20;99004.26;105987;1260;73898;-77
2023/07/20 10:14:53;;;;;;;6.10;3.10;;;;;;;30.11;36.87;99008.60;106640;1258;69036;-78
2023/07/20 10:17:20;;;;;;;5.10;2.60;;;;;;;30.32;36.61;99007.66;106670;1268;72433;-75
2023/07/20 10:19:50;;;;;;;4.70;2.70;;;;;;;30.53;36.23;98996.94;106317;1257;60522;-79
2023/07/20 10:22:26;;;;;;;3.80;2.50;;;;;;;30.76;36.10;98992.24;106791;1260;60293;-79
2023/07/20 10:24:58;;;;;;;4.30;2.60;;;;;;;31.21;36.18;98987.95;106781;1254;73048;-77
2023/07/20 10:27:29;;;;;;;2.80;2.40;;;;;;;31.67;35.43;98985.48;106643;1258;68491;-75
2023/07/20 10:29:58;;;;;;;3.80;2.60;;;;;;;31.89;34.92;98975.83;107410;1255;72794;-74
2023/07/20 10:32:26;;;;;;;2.80;2.50;;;;;;;32.02;34.63;98977.90;107093;1260;60307;-75
2023/07/20 10:34:56;;;;;;;3.50;2.90;;;;;;;32.24;34.82;98975.55;106935;1260;60341;-75
2023/07/20 10:37:48;;;;;;;3.40;2.80;;;;;;;32.63;34.18;98972.85;106189;1259;73872;-77
2023/07/20 10:40:32;;;;;;;4.10;2.60;;;;;;;33.02;33.35;98982.45;106418;1262;68724;-79
2023/07/20 10:43:04;;;;;;;3.90;2.80;;;;;;;33.29;32.96;98973.68;106295;1257;75739;-76
2023/07/20 10:45:33;;;;;;;;;;;;;;;33.59;32.49;98970.96;106114;1260;60383;-74
2023/07/20 10:48:05;;;;;;;4.40;2.70;;;;;;;33.81;32.31;98961.11;106029;1258;60675;-75
2023/07/20 10:50:36;;;;;;;2.80;2.40;;;;;;;34.14;32.53;98955.98;106168;1264;72655;-76
2023/07/20 10:53:09;;;;;;;5.10;2.70;;;;;;;34.50;31.64;98961.13;105418;1260;68833;-76
2023/07/20 10:55:37;;;;;;;2.60;2.40;;;;;;;34.68;31.66;98951.69;105401;1260;73015;-78
2023/07/20 10:58:07;;;;;;;3.30;2.70;;;;;;;34.83;31.31;98951.59;105706;1260;60641;-77
2023/07/20 11:00:35;;;;;;;3.50;2.70;;;;;;;34.92;31.05;98951.61;106153;1255;60350;-74
2023/07/20 11:03:02;;;;;;;3.00;2.70;;;;;;;34.91;30.76;98944.16;107025;1257;63730;-75
2023/07/20 11:05:40;;;;;;;3.70;2.70;;;;;;;35.04;31.12;98947.15;106950;1260;68754;-76
2023/07/20 11:08:12;;;;;;;3.60;2.70;;;;;;;35.48;30.66;98937.45;106153;1260;62559;-72
2023/07/20 11:10:39;;;;;;;5.00;3.00;;;;;;;35.83;30.13;98947.23;105440;1260;60521;-77
2023/07/20 11:13:22;;;;;;;4.40;2.90;;;;;;;36.03;29.84;98945.74;105469;1258;60618;-76
2023/07/20 11:15:59;;;;;;;3.50;2.50;;;;;;;36.30;29.56;98943.94;105529;1254;63732;-76
2023/07/20 11:18:27;;;;;;;3.00;2.40;;;;;;;36.42;29.51;98937.28;105384;1260;61549;-76
2023/07/20 11:20:54;;;;;;;3.30;2.60;;;;;;;36.54;29.46;98934.61;105502;1267;62612;-75
2023/07/20 11:23:22;;;;;;;4.40;3.70;;;;;;;36.68;29.01;98931.53;105149;1258;60472;-77
2023/07/20 11:25:49;;;;;;;2.90;2.60;;;;;;;36.62;29.06;98931.23;105401;1257;60390;-76
2023/07/20 11:28:17;;;;;;;4.20;2.90;;;;;;;36.67;29.04;98925.52;105410;1254;63765;-79
2023/07/20 11:30:44;;;;;;;4.00;3.40;;;;;;;36.66;28.82;98921.27;106624;1257;61380;-76
2023/07/20 11:33:12;;;;;;;5.10;2.60;;;;;;;36.47;28.98;98914.15;107383;1257;62477;-75
2023/07/20 11:35:44;;;;;;;2.80;2.50;;;;;;;36.21;29.39;98920.67;107005;1256;59147;-74
2023/07/20 11:38:12;;;;;;;2.60;2.40;;;;;;;35.93;29.54;98924.48;105752;1259;60401;-76